sensor_id;sensor_type;location;lat;lon;timestamp;P1;durP1;ratioP1;P2;durP2;ratioP2
6013;SDS011;3035;49.928;8.410;2024-02-15T00:01:47;8.40;;;6.80;;
6013;SDS011;3035;49.928;8.410;2024-02-15T00:04:15;9.20;;;6.93;;
6013;SDS011;3035;49.928;8.410;2024-02-15T00:06:42;9.17;;;7.13;;
6013;SDS011;3035;49.928;8.410;2024-02-15T00:09:09;11.53;;;6.60;;
6013;SDS011;3035;49.928;8.410;2024-02-15T00:11:37;9.40;;;7.20;;
6013;SDS011;3035;49.928;8.410;2024-02-15T00:14:04;12.20;;;7.77;;
6013;SDS011;3035;49.928;8.410;2024-02-15T00:16:32;10.23;;;7.90;;
6013;SDS011;3035;49.928;8.410;2024-02-15T00:18:59;10.63;;;7.40;;
6013;SDS011;3035;49.928;8.410;2024-02-15T00:21:27;9.10;;;7.07;;
6013;SDS011;3035;49.928;8.410;2024-02-15T00:23:54;10.70;;;7.33;;
6013;SDS011;3035;49.928;8.410;2024-02-15T00:26:22;10.20;;;7.20;;
6013;SDS011;3035;49.928;8.410;2024-02-15T00:28:49;12.13;;;7.70;;
6013;SDS011;3035;49.928;8.410;2024-02-15T00:31:16;24.30;;;9.33;;
6013;SDS011;3035;49.928;8.410;2024-02-15T00:33:44;12.77;;;9.67;;
6013;SDS011;3035;49.928;8.410;2024-02-15T00:36:11;13.03;;;8.27;;
6013;SDS011;3035;49.928;8.410;2024-02-15T00:38:39;14.20;;;8.67;;
6013;SDS011;3035;49.928;8.410;2024-02-15T00:41:06;18.00;;;9.53;;
6013;SDS011;3035;49.928;8.410;2024-02-15T00:43:34;11.13;;;8.33;;
6013;SDS011;3035;49.928;8.410;2024-02-15T00:46:01;13.50;;;9.07;;
6013;SDS011;3035;49.928;8.410;2024-02-15T00:48:28;13.50;;;8.73;;
6013;SDS011;3035;49.928;8.410;2024-02-15T00:50:56;14.27;;;8.57;;
6013;SDS011;3035;49.928;8.410;2024-02-15T00:53:23;16.77;;;9.40;;
6013;SDS011;3035;49.928;8.410;2024-02-15T00:55:51;11.37;;;8.87;;
6013;SDS011;3035;49.928;8.410;2024-02-15T00:58:18;17.40;;;9.00;;
6013;SDS011;3035;49.928;8.410;2024-02-15T01:00:46;13.20;;;8.30;;
6013;SDS011;3035;49.928;8.410;2024-02-15T01:03:14;15.23;;;10.07;;
6013;SDS011;3035;49.928;8.410;2024-02-15T01:05:41;18.53;;;9.70;;
6013;SDS011;3035;49.928;8.410;2024-02-15T01:08:08;13.60;;;9.00;;
6013;SDS011;3035;49.928;8.410;2024-02-15T01:10:35;13.67;;;9.17;;
6013;SDS011;3035;49.928;8.410;2024-02-15T01:13:03;13.13;;;9.63;;
6013;SDS011;3035;49.928;8.410;2024-02-15T01:15:30;18.57;;;9.70;;
6013;SDS011;3035;49.928;8.410;2024-02-15T01:17:58;12.60;;;10.10;;
6013;SDS011;3035;49.928;8.410;2024-02-15T01:20:25;11.07;;;8.90;;
6013;SDS011;3035;49.928;8.410;2024-02-15T01:22:53;14.77;;;9.07;;
6013;SDS011;3035;49.928;8.410;2024-02-15T01:25:20;12.00;;;9.20;;
6013;SDS011;3035;49.928;8.410;2024-02-15T01:27:48;13.60;;;9.43;;
6013;SDS011;3035;49.928;8.410;2024-02-15T01:30:15;12.40;;;9.20;;
6013;SDS011;3035;49.928;8.410;2024-02-15T01:32:43;12.23;;;9.07;;
6013;SDS011;3035;49.928;8.410;2024-02-15T01:35:10;13.73;;;9.00;;
6013;SDS011;3035;49.928;8.410;2024-02-15T01:37:38;14.97;;;8.90;;
6013;SDS011;3035;49.928;8.410;2024-02-15T01:40:05;17.17;;;8.50;;
6013;SDS011;3035;49.928;8.410;2024-02-15T01:42:33;24.87;;;10.20;;
6013;SDS011;3035;49.928;8.410;2024-02-15T01:45:01;14.33;;;9.73;;
6013;SDS011;3035;49.928;8.410;2024-02-15T01:47:28;12.03;;;8.90;;
6013;SDS011;3035;49.928;8.410;2024-02-15T01:49:55;12.23;;;8.53;;
6013;SDS011;3035;49.928;8.410;2024-02-15T01:52:23;15.70;;;8.70;;
6013;SDS011;3035;49.928;8.410;2024-02-15T01:54:51;11.43;;;8.57;;
6013;SDS011;3035;49.928;8.410;2024-02-15T01:57:18;12.63;;;8.40;;
6013;SDS011;3035;49.928;8.410;2024-02-15T01:59:45;13.50;;;8.63;;
6013;SDS011;3035;49.928;8.410;2024-02-15T02:02:12;11.57;;;8.40;;
6013;SDS011;3035;49.928;8.410;2024-02-15T02:04:40;9.40;;;7.50;;
6013;SDS011;3035;49.928;8.410;2024-02-15T02:07:07;15.33;;;8.23;;
6013;SDS011;3035;49.928;8.410;2024-02-15T02:09:35;15.07;;;8.43;;
6013;SDS011;3035;49.928;8.410;2024-02-15T02:12:02;10.60;;;8.27;;
6013;SDS011;3035;49.928;8.410;2024-02-15T02:14:30;13.97;;;8.83;;
6013;SDS011;3035;49.928;8.410;2024-02-15T02:17:10;17.43;;;8.00;;
6013;SDS011;3035;49.928;8.410;2024-02-15T02:19:24;12.60;;;8.37;;
6013;SDS011;3035;49.928;8.410;2024-02-15T02:21:52;10.27;;;7.37;;
6013;SDS011;3035;49.928;8.410;2024-02-15T02:24:21;9.93;;;7.00;;
6013;SDS011;3035;49.928;8.410;2024-02-15T02:26:47;16.33;;;6.80;;
6013;SDS011;3035;49.928;8.410;2024-02-15T02:29:15;8.30;;;7.20;;
6013;SDS011;3035;49.928;8.410;2024-02-15T02:31:42;10.83;;;7.97;;
6013;SDS011;3035;49.928;8.410;2024-02-15T02:34:09;14.43;;;8.30;;
6013;SDS011;3035;49.928;8.410;2024-02-15T02:36:37;10.43;;;7.70;;
6013;SDS011;3035;49.928;8.410;2024-02-15T02:39:04;11.00;;;7.00;;
6013;SDS011;3035;49.928;8.410;2024-02-15T02:41:31;12.50;;;7.00;;
6013;SDS011;3035;49.928;8.410;2024-02-15T02:43:59;15.43;;;7.33;;
6013;SDS011;3035;49.928;8.410;2024-02-15T02:46:26;10.83;;;7.53;;
6013;SDS011;3035;49.928;8.410;2024-02-15T02:48:54;9.97;;;7.23;;
6013;SDS011;3035;49.928;8.410;2024-02-15T02:51:21;10.50;;;7.20;;
6013;SDS011;3035;49.928;8.410;2024-02-15T02:53:49;13.83;;;7.33;;
6013;SDS011;3035;49.928;8.410;2024-02-15T02:56:16;13.60;;;8.47;;
6013;SDS011;3035;49.928;8.410;2024-02-15T02:58:44;10.03;;;8.17;;
6013;SDS011;3035;49.928;8.410;2024-02-15T03:01:11;11.77;;;7.97;;
6013;SDS011;3035;49.928;8.410;2024-02-15T03:03:38;9.20;;;6.87;;
6013;SDS011;3035;49.928;8.410;2024-02-15T03:06:06;14.83;;;7.50;;
6013;SDS011;3035;49.928;8.410;2024-02-15T03:08:33;10.67;;;6.30;;
6013;SDS011;3035;49.928;8.410;2024-02-15T03:11:01;10.10;;;6.27;;
6013;SDS011;3035;49.928;8.410;2024-02-15T03:13:28;12.40;;;6.77;;
6013;SDS011;3035;49.928;8.410;2024-02-15T03:15:56;12.20;;;6.80;;
6013;SDS011;3035;49.928;8.410;2024-02-15T03:18:23;14.93;;;6.93;;
6013;SDS011;3035;49.928;8.410;2024-02-15T03:20:50;14.47;;;7.00;;
6013;SDS011;3035;49.928;8.410;2024-02-15T03:23:18;10.03;;;6.47;;
6013;SDS011;3035;49.928;8.410;2024-02-15T03:25:45;9.03;;;6.27;;
6013;SDS011;3035;49.928;8.410;2024-02-15T03:28:13;14.13;;;6.53;;
6013;SDS011;3035;49.928;8.410;2024-02-15T03:30:41;16.73;;;7.40;;
6013;SDS011;3035;49.928;8.410;2024-02-15T03:33:08;12.97;;;6.57;;
6013;SDS011;3035;49.928;8.410;2024-02-15T03:35:35;9.63;;;6.27;;
6013;SDS011;3035;49.928;8.410;2024-02-15T03:38:03;7.90;;;6.10;;
6013;SDS011;3035;49.928;8.410;2024-02-15T03:40:30;10.23;;;6.50;;
6013;SDS011;3035;49.928;8.410;2024-02-15T03:42:58;9.90;;;6.23;;
6013;SDS011;3035;49.928;8.410;2024-02-15T03:45:25;9.47;;;6.40;;
6013;SDS011;3035;49.928;8.410;2024-02-15T03:47:52;11.10;;;6.40;;
6013;SDS011;3035;49.928;8.410;2024-02-15T03:50:20;10.53;;;7.13;;
6013;SDS011;3035;49.928;8.410;2024-02-15T03:52:48;13.10;;;6.50;;
6013;SDS011;3035;49.928;8.410;2024-02-15T03:55:15;9.87;;;5.87;;
6013;SDS011;3035;49.928;8.410;2024-02-15T03:57:43;10.23;;;5.60;;
6013;SDS011;3035;49.928;8.410;2024-02-15T04:00:10;12.87;;;5.93;;
6013;SDS011;3035;49.928;8.410;2024-02-15T04:02:38;10.07;;;6.07;;
6013;SDS011;3035;49.928;8.410;2024-02-15T04:05:06;10.00;;;6.87;;
6013;SDS011;3035;49.928;8.410;2024-02-15T04:07:33;10.30;;;5.83;;
6013;SDS011;3035;49.928;8.410;2024-02-15T04:10:01;7.30;;;5.53;;
6013;SDS011;3035;49.928;8.410;2024-02-15T04:12:28;9.13;;;5.73;;
6013;SDS011;3035;49.928;8.410;2024-02-15T04:14:56;8.10;;;6.37;;
6013;SDS011;3035;49.928;8.410;2024-02-15T04:17:24;6.77;;;4.60;;
6013;SDS011;3035;49.928;8.410;2024-02-15T04:19:51;15.13;;;6.00;;
6013;SDS011;3035;49.928;8.410;2024-02-15T04:22:18;11.90;;;5.50;;
6013;SDS011;3035;49.928;8.410;2024-02-15T04:24:46;10.70;;;6.13;;
6013;SDS011;3035;49.928;8.410;2024-02-15T04:27:13;8.40;;;5.87;;
6013;SDS011;3035;49.928;8.410;2024-02-15T04:29:41;6.33;;;5.10;;
6013;SDS011;3035;49.928;8.410;2024-02-15T04:32:08;11.10;;;5.57;;
6013;SDS011;3035;49.928;8.410;2024-02-15T04:34:36;6.93;;;5.00;;
6013;SDS011;3035;49.928;8.410;2024-02-15T04:37:03;6.30;;;4.90;;
6013;SDS011;3035;49.928;8.410;2024-02-15T04:39:34;5.87;;;4.63;;
6013;SDS011;3035;49.928;8.410;2024-02-15T04:42:01;7.30;;;5.13;;
6013;SDS011;3035;49.928;8.410;2024-02-15T04:44:28;12.87;;;5.97;;
6013;SDS011;3035;49.928;8.410;2024-02-15T04:46:56;11.50;;;5.77;;
6013;SDS011;3035;49.928;8.410;2024-02-15T04:49:23;7.37;;;5.67;;
6013;SDS011;3035;49.928;8.410;2024-02-15T04:51:50;9.40;;;5.40;;
6013;SDS011;3035;49.928;8.410;2024-02-15T04:54:18;16.53;;;5.53;;
6013;SDS011;3035;49.928;8.410;2024-02-15T04:56:45;8.60;;;5.53;;
6013;SDS011;3035;49.928;8.410;2024-02-15T04:59:13;7.80;;;4.93;;
6013;SDS011;3035;49.928;8.410;2024-02-15T05:01:43;8.10;;;4.87;;
6013;SDS011;3035;49.928;8.410;2024-02-15T05:04:11;14.07;;;5.97;;
6013;SDS011;3035;49.928;8.410;2024-02-15T05:06:38;9.27;;;4.83;;
6013;SDS011;3035;49.928;8.410;2024-02-15T05:09:05;6.30;;;5.40;;
6013;SDS011;3035;49.928;8.410;2024-02-15T05:11:34;11.60;;;5.63;;
6013;SDS011;3035;49.928;8.410;2024-02-15T05:14:02;11.53;;;5.27;;
6013;SDS011;3035;49.928;8.410;2024-02-15T05:16:29;10.80;;;5.77;;
6013;SDS011;3035;49.928;8.410;2024-02-15T05:18:57;16.57;;;5.80;;
6013;SDS011;3035;49.928;8.410;2024-02-15T05:21:24;9.87;;;5.63;;
6013;SDS011;3035;49.928;8.410;2024-02-15T05:23:51;9.97;;;5.13;;
6013;SDS011;3035;49.928;8.410;2024-02-15T05:26:20;10.43;;;5.37;;
6013;SDS011;3035;49.928;8.410;2024-02-15T05:28:49;9.43;;;6.47;;
6013;SDS011;3035;49.928;8.410;2024-02-15T05:31:17;8.33;;;5.80;;
6013;SDS011;3035;49.928;8.410;2024-02-15T05:33:44;8.03;;;5.87;;
6013;SDS011;3035;49.928;8.410;2024-02-15T05:36:13;9.40;;;5.23;;
6013;SDS011;3035;49.928;8.410;2024-02-15T05:38:41;10.03;;;5.80;;
6013;SDS011;3035;49.928;8.410;2024-02-15T05:41:09;8.60;;;5.87;;
6013;SDS011;3035;49.928;8.410;2024-02-15T05:43:39;6.97;;;5.03;;
6013;SDS011;3035;49.928;8.410;2024-02-15T05:46:07;11.90;;;5.40;;
6013;SDS011;3035;49.928;8.410;2024-02-15T05:48:36;14.23;;;5.80;;
6013;SDS011;3035;49.928;8.410;2024-02-15T05:51:05;8.70;;;6.10;;
6013;SDS011;3035;49.928;8.410;2024-02-15T05:53:33;8.87;;;5.50;;
6013;SDS011;3035;49.928;8.410;2024-02-15T05:56:04;8.10;;;5.33;;
6013;SDS011;3035;49.928;8.410;2024-02-15T05:58:33;11.47;;;5.00;;
6013;SDS011;3035;49.928;8.410;2024-02-15T06:01:03;7.30;;;5.70;;
6013;SDS011;3035;49.928;8.410;2024-02-15T06:03:31;9.80;;;5.90;;
6013;SDS011;3035;49.928;8.410;2024-02-15T06:06:00;11.07;;;5.30;;
6013;SDS011;3035;49.928;8.410;2024-02-15T06:08:28;10.53;;;5.17;;
6013;SDS011;3035;49.928;8.410;2024-02-15T06:10:57;6.10;;;4.83;;
6013;SDS011;3035;49.928;8.410;2024-02-15T06:13:26;11.37;;;5.10;;
6013;SDS011;3035;49.928;8.410;2024-02-15T06:15:53;15.07;;;7.53;;
6013;SDS011;3035;49.928;8.410;2024-02-15T06:18:25;12.70;;;7.97;;
6013;SDS011;3035;49.928;8.410;2024-02-15T06:20:52;10.03;;;6.60;;
6013;SDS011;3035;49.928;8.410;2024-02-15T06:23:20;8.47;;;6.57;;
6013;SDS011;3035;49.928;8.410;2024-02-15T06:25:47;10.87;;;6.17;;
6013;SDS011;3035;49.928;8.410;2024-02-15T06:28:15;14.30;;;6.20;;
6013;SDS011;3035;49.928;8.410;2024-02-15T06:31:02;9.20;;;6.67;;
6013;SDS011;3035;49.928;8.410;2024-02-15T06:33:35;9.80;;;6.73;;
6013;SDS011;3035;49.928;8.410;2024-02-15T06:36:08;12.40;;;7.70;;
6013;SDS011;3035;49.928;8.410;2024-02-15T06:38:41;10.23;;;6.93;;
6013;SDS011;3035;49.928;8.410;2024-02-15T06:41:15;13.33;;;7.30;;
6013;SDS011;3035;49.928;8.410;2024-02-15T06:43:43;11.57;;;7.43;;
6013;SDS011;3035;49.928;8.410;2024-02-15T06:46:12;7.10;;;5.20;;
6013;SDS011;3035;49.928;8.410;2024-02-15T06:48:41;14.07;;;6.33;;
6013;SDS011;3035;49.928;8.410;2024-02-15T06:51:13;8.60;;;6.70;;
6013;SDS011;3035;49.928;8.410;2024-02-15T06:53:41;6.60;;;5.80;;
6013;SDS011;3035;49.928;8.410;2024-02-15T06:56:09;8.33;;;6.00;;
6013;SDS011;3035;49.928;8.410;2024-02-15T06:58:37;9.40;;;5.90;;
6013;SDS011;3035;49.928;8.410;2024-02-15T07:01:04;11.63;;;6.73;;
6013;SDS011;3035;49.928;8.410;2024-02-15T07:03:32;9.87;;;6.30;;
6013;SDS011;3035;49.928;8.410;2024-02-15T07:06:00;13.27;;;6.20;;
6013;SDS011;3035;49.928;8.410;2024-02-15T07:08:29;9.83;;;6.57;;
6013;SDS011;3035;49.928;8.410;2024-02-15T07:10:57;10.83;;;5.40;;
6013;SDS011;3035;49.928;8.410;2024-02-15T07:13:25;8.43;;;5.80;;
6013;SDS011;3035;49.928;8.410;2024-02-15T07:15:54;8.90;;;5.13;;
6013;SDS011;3035;49.928;8.410;2024-02-15T07:18:21;9.03;;;6.20;;
6013;SDS011;3035;49.928;8.410;2024-02-15T07:20:49;10.07;;;5.23;;
6013;SDS011;3035;49.928;8.410;2024-02-15T07:23:18;12.17;;;6.10;;
6013;SDS011;3035;49.928;8.410;2024-02-15T07:25:45;6.73;;;5.07;;
6013;SDS011;3035;49.928;8.410;2024-02-15T07:28:14;7.50;;;4.97;;
6013;SDS011;3035;49.928;8.410;2024-02-15T07:30:41;9.70;;;5.27;;
6013;SDS011;3035;49.928;8.410;2024-02-15T07:33:09;8.50;;;5.27;;
6013;SDS011;3035;49.928;8.410;2024-02-15T07:35:38;8.70;;;5.87;;
6013;SDS011;3035;49.928;8.410;2024-02-15T07:38:06;12.53;;;4.77;;
6013;SDS011;3035;49.928;8.410;2024-02-15T07:40:34;6.77;;;4.07;;
6013;SDS011;3035;49.928;8.410;2024-02-15T07:43:03;7.00;;;5.00;;
6013;SDS011;3035;49.928;8.410;2024-02-15T07:45:31;11.53;;;4.50;;
6013;SDS011;3035;49.928;8.410;2024-02-15T07:48:00;7.40;;;4.83;;
6013;SDS011;3035;49.928;8.410;2024-02-15T07:50:28;5.27;;;4.30;;
6013;SDS011;3035;49.928;8.410;2024-02-15T07:52:55;11.63;;;4.57;;
6013;SDS011;3035;49.928;8.410;2024-02-15T07:55:24;7.80;;;4.47;;
6013;SDS011;3035;49.928;8.410;2024-02-15T07:57:51;10.30;;;4.10;;
6013;SDS011;3035;49.928;8.410;2024-02-15T08:00:20;17.03;;;5.73;;
6013;SDS011;3035;49.928;8.410;2024-02-15T08:02:47;8.03;;;4.50;;
6013;SDS011;3035;49.928;8.410;2024-02-15T08:05:15;9.77;;;4.30;;
6013;SDS011;3035;49.928;8.410;2024-02-15T08:07:44;9.07;;;4.00;;
6013;SDS011;3035;49.928;8.410;2024-02-15T08:10:12;8.90;;;4.83;;
6013;SDS011;3035;49.928;8.410;2024-02-15T08:12:41;6.80;;;4.97;;
6013;SDS011;3035;49.928;8.410;2024-02-15T08:15:09;12.90;;;4.80;;
6013;SDS011;3035;49.928;8.410;2024-02-15T08:17:42;7.43;;;4.20;;
6013;SDS011;3035;49.928;8.410;2024-02-15T08:20:10;9.07;;;4.80;;
6013;SDS011;3035;49.928;8.410;2024-02-15T08:22:37;9.77;;;4.80;;
6013;SDS011;3035;49.928;8.410;2024-02-15T08:25:07;5.80;;;4.70;;
6013;SDS011;3035;49.928;8.410;2024-02-15T08:27:38;5.80;;;4.30;;
6013;SDS011;3035;49.928;8.410;2024-02-15T08:30:07;7.40;;;4.30;;
6013;SDS011;3035;49.928;8.410;2024-02-15T08:32:34;9.57;;;5.50;;
6013;SDS011;3035;49.928;8.410;2024-02-15T08:35:01;9.33;;;5.57;;
6013;SDS011;3035;49.928;8.410;2024-02-15T08:37:29;9.93;;;5.13;;
6013;SDS011;3035;49.928;8.410;2024-02-15T08:39:56;9.13;;;4.73;;
6013;SDS011;3035;49.928;8.410;2024-02-15T08:42:24;11.93;;;5.30;;
6013;SDS011;3035;49.928;8.410;2024-02-15T08:44:52;9.80;;;5.40;;
6013;SDS011;3035;49.928;8.410;2024-02-15T08:47:19;8.13;;;5.23;;
6013;SDS011;3035;49.928;8.410;2024-02-15T08:49:47;8.53;;;5.00;;
6013;SDS011;3035;49.928;8.410;2024-02-15T08:52:14;8.63;;;4.90;;
6013;SDS011;3035;49.928;8.410;2024-02-15T08:54:42;7.40;;;5.17;;
6013;SDS011;3035;49.928;8.410;2024-02-15T08:57:09;8.30;;;5.27;;
6013;SDS011;3035;49.928;8.410;2024-02-15T08:59:37;8.40;;;4.90;;
6013;SDS011;3035;49.928;8.410;2024-02-15T09:02:04;10.70;;;5.70;;
6013;SDS011;3035;49.928;8.410;2024-02-15T09:04:31;9.90;;;4.80;;
6013;SDS011;3035;49.928;8.410;2024-02-15T09:06:59;12.47;;;4.37;;
6013;SDS011;3035;49.928;8.410;2024-02-15T09:09:26;6.33;;;4.93;;
6013;SDS011;3035;49.928;8.410;2024-02-15T09:11:54;5.80;;;4.80;;
6013;SDS011;3035;49.928;8.410;2024-02-15T09:14:21;8.70;;;4.60;;
6013;SDS011;3035;49.928;8.410;2024-02-15T09:16:49;7.70;;;5.17;;
6013;SDS011;3035;49.928;8.410;2024-02-15T09:19:16;9.07;;;5.10;;
6013;SDS011;3035;49.928;8.410;2024-02-15T09:21:44;7.53;;;5.23;;
6013;SDS011;3035;49.928;8.410;2024-02-15T09:24:11;10.93;;;5.60;;
6013;SDS011;3035;49.928;8.410;2024-02-15T09:26:38;8.33;;;4.63;;
6013;SDS011;3035;49.928;8.410;2024-02-15T09:29:06;6.77;;;4.33;;
6013;SDS011;3035;49.928;8.410;2024-02-15T09:31:33;14.57;;;4.50;;
6013;SDS011;3035;49.928;8.410;2024-02-15T09:34:01;6.97;;;4.30;;
6013;SDS011;3035;49.928;8.410;2024-02-15T09:36:28;5.97;;;4.23;;
6013;SDS011;3035;49.928;8.410;2024-02-15T09:38:56;7.80;;;4.90;;
6013;SDS011;3035;49.928;8.410;2024-02-15T09:41:23;11.00;;;4.47;;
6013;SDS011;3035;49.928;8.410;2024-02-15T09:43:51;5.17;;;4.37;;
6013;SDS011;3035;49.928;8.410;2024-02-15T09:46:18;10.90;;;4.77;;
6013;SDS011;3035;49.928;8.410;2024-02-15T09:48:47;7.00;;;4.90;;
6013;SDS011;3035;49.928;8.410;2024-02-15T09:51:14;7.13;;;4.10;;
6013;SDS011;3035;49.928;8.410;2024-02-15T09:53:41;4.30;;;3.87;;
6013;SDS011;3035;49.928;8.410;2024-02-15T09:56:09;5.77;;;4.20;;
6013;SDS011;3035;49.928;8.410;2024-02-15T09:58:36;6.23;;;4.67;;
6013;SDS011;3035;49.928;8.410;2024-02-15T10:01:04;7.33;;;4.20;;
6013;SDS011;3035;49.928;8.410;2024-02-15T10:03:31;10.07;;;4.83;;
6013;SDS011;3035;49.928;8.410;2024-02-15T10:05:59;17.80;;;4.40;;
6013;SDS011;3035;49.928;8.410;2024-02-15T10:08:26;7.07;;;5.07;;
6013;SDS011;3035;49.928;8.410;2024-02-15T10:13:32;7.17;;;4.00;;
6013;SDS011;3035;49.928;8.410;2024-02-15T10:15:59;9.67;;;4.00;;
6013;SDS011;3035;49.928;8.410;2024-02-15T10:18:27;8.10;;;4.40;;
6013;SDS011;3035;49.928;8.410;2024-02-15T10:20:57;7.70;;;4.13;;
6013;SDS011;3035;49.928;8.410;2024-02-15T10:23:23;9.93;;;3.93;;
6013;SDS011;3035;49.928;8.410;2024-02-15T10:25:50;7.63;;;4.40;;
6013;SDS011;3035;49.928;8.410;2024-02-15T10:28:20;9.43;;;3.87;;
6013;SDS011;3035;49.928;8.410;2024-02-15T10:30:47;10.60;;;4.10;;
6013;SDS011;3035;49.928;8.410;2024-02-15T10:33:19;9.93;;;4.17;;
6013;SDS011;3035;49.928;8.410;2024-02-15T10:35:46;9.80;;;4.50;;
6013;SDS011;3035;49.928;8.410;2024-02-15T10:38:14;8.63;;;3.57;;
6013;SDS011;3035;49.928;8.410;2024-02-15T10:40:41;8.03;;;4.20;;
6013;SDS011;3035;49.928;8.410;2024-02-15T10:43:09;8.53;;;3.77;;
6013;SDS011;3035;49.928;8.410;2024-02-15T10:45:38;5.60;;;3.30;;
6013;SDS011;3035;49.928;8.410;2024-02-15T10:48:07;6.43;;;3.90;;
6013;SDS011;3035;49.928;8.410;2024-02-15T10:50:33;9.60;;;4.37;;
6013;SDS011;3035;49.928;8.410;2024-02-15T10:53:00;8.10;;;3.30;;
6013;SDS011;3035;49.928;8.410;2024-02-15T10:55:34;11.33;;;3.80;;
6013;SDS011;3035;49.928;8.410;2024-02-15T10:58:00;4.63;;;3.20;;
6013;SDS011;3035;49.928;8.410;2024-02-15T11:00:26;8.23;;;4.10;;
6013;SDS011;3035;49.928;8.410;2024-02-15T11:03:00;7.47;;;3.23;;
6013;SDS011;3035;49.928;8.410;2024-02-15T11:05:29;6.73;;;3.80;;
6013;SDS011;3035;49.928;8.410;2024-02-15T11:07:56;6.90;;;3.40;;
6013;SDS011;3035;49.928;8.410;2024-02-15T11:10:25;9.10;;;4.60;;
6013;SDS011;3035;49.928;8.410;2024-02-15T11:12:51;22.53;;;9.73;;
6013;SDS011;3035;49.928;8.410;2024-02-15T11:18:12;19.73;;;4.30;;
6013;SDS011;3035;49.928;8.410;2024-02-15T11:20:48;6.17;;;3.70;;
6013;SDS011;3035;49.928;8.410;2024-02-15T11:23:23;11.50;;;3.70;;
6013;SDS011;3035;49.928;8.410;2024-02-15T11:25:44;5.83;;;2.90;;
6013;SDS011;3035;49.928;8.410;2024-02-15T11:31:03;4.20;;;2.60;;
6013;SDS011;3035;49.928;8.410;2024-02-15T11:33:33;2.97;;;2.40;;
6013;SDS011;3035;49.928;8.410;2024-02-15T11:36:08;4.83;;;2.80;;
6013;SDS011;3035;49.928;8.410;2024-02-15T11:38:35;3.17;;;2.87;;
6013;SDS011;3035;49.928;8.410;2024-02-15T11:41:05;6.50;;;2.60;;
6013;SDS011;3035;49.928;8.410;2024-02-15T11:46:17;4.13;;;2.97;;
6013;SDS011;3035;49.928;8.410;2024-02-15T11:48:45;3.57;;;2.60;;
6013;SDS011;3035;49.928;8.410;2024-02-15T11:53:59;8.30;;;2.70;;
6013;SDS011;3035;49.928;8.410;2024-02-15T11:56:26;9.03;;;2.67;;
6013;SDS011;3035;49.928;8.410;2024-02-15T12:01:28;2.80;;;2.43;;
6013;SDS011;3035;49.928;8.410;2024-02-15T12:04:03;6.50;;;2.27;;
6013;SDS011;3035;49.928;8.410;2024-02-15T12:06:36;4.73;;;2.37;;
6013;SDS011;3035;49.928;8.410;2024-02-15T12:09:11;5.67;;;2.40;;
6013;SDS011;3035;49.928;8.410;2024-02-15T12:11:44;12.23;;;2.30;;
6013;SDS011;3035;49.928;8.410;2024-02-15T12:14:19;5.47;;;2.63;;
6013;SDS011;3035;49.928;8.410;2024-02-15T12:16:59;4.20;;;2.13;;
6013;SDS011;3035;49.928;8.410;2024-02-15T12:19:34;2.73;;;1.60;;
6013;SDS011;3035;49.928;8.410;2024-02-15T12:22:01;5.47;;;2.00;;
6013;SDS011;3035;49.928;8.410;2024-02-15T12:24:29;7.00;;;3.03;;
6013;SDS011;3035;49.928;8.410;2024-02-15T12:27:00;3.97;;;2.90;;
6013;SDS011;3035;49.928;8.410;2024-02-15T12:29:27;2.33;;;1.83;;
6013;SDS011;3035;49.928;8.410;2024-02-15T12:31:56;5.93;;;2.53;;
6013;SDS011;3035;49.928;8.410;2024-02-15T12:34:23;4.73;;;2.13;;
6013;SDS011;3035;49.928;8.410;2024-02-15T12:37:04;4.50;;;2.30;;
6013;SDS011;3035;49.928;8.410;2024-02-15T12:39:24;3.70;;;1.70;;
6013;SDS011;3035;49.928;8.410;2024-02-15T12:41:51;5.00;;;2.40;;
6013;SDS011;3035;49.928;8.410;2024-02-15T12:44:20;4.33;;;2.07;;
6013;SDS011;3035;49.928;8.410;2024-02-15T12:46:55;3.37;;;2.07;;
6013;SDS011;3035;49.928;8.410;2024-02-15T12:49:29;2.60;;;1.70;;
6013;SDS011;3035;49.928;8.410;2024-02-15T12:54:36;3.97;;;2.13;;
6013;SDS011;3035;49.928;8.410;2024-02-15T12:57:07;5.73;;;2.47;;
6013;SDS011;3035;49.928;8.410;2024-02-15T12:59:34;3.27;;;2.17;;
6013;SDS011;3035;49.928;8.410;2024-02-15T13:02:01;9.00;;;1.83;;
6013;SDS011;3035;49.928;8.410;2024-02-15T13:04:29;6.33;;;2.77;;
6013;SDS011;3035;49.928;8.410;2024-02-15T13:06:56;4.53;;;2.10;;
6013;SDS011;3035;49.928;8.410;2024-02-15T13:09:24;5.23;;;2.07;;
6013;SDS011;3035;49.928;8.410;2024-02-15T13:11:51;4.17;;;1.67;;
6013;SDS011;3035;49.928;8.410;2024-02-15T13:14:19;1.97;;;1.73;;
6013;SDS011;3035;49.928;8.410;2024-02-15T13:16:46;3.53;;;1.60;;
6013;SDS011;3035;49.928;8.410;2024-02-15T13:19:13;4.07;;;1.93;;
6013;SDS011;3035;49.928;8.410;2024-02-15T13:21:41;8.60;;;2.13;;
6013;SDS011;3035;49.928;8.410;2024-02-15T13:24:08;4.20;;;1.70;;
6013;SDS011;3035;49.928;8.410;2024-02-15T13:26:36;3.20;;;1.80;;
6013;SDS011;3035;49.928;8.410;2024-02-15T13:29:03;2.27;;;1.47;;
6013;SDS011;3035;49.928;8.410;2024-02-15T13:31:31;4.93;;;1.70;;
6013;SDS011;3035;49.928;8.410;2024-02-15T13:33:58;2.77;;;1.53;;
6013;SDS011;3035;49.928;8.410;2024-02-15T13:36:25;4.17;;;1.80;;
6013;SDS011;3035;49.928;8.410;2024-02-15T13:38:53;11.00;;;1.87;;
6013;SDS011;3035;49.928;8.410;2024-02-15T13:41:20;7.93;;;2.20;;
6013;SDS011;3035;49.928;8.410;2024-02-15T13:43:48;5.23;;;1.70;;
6013;SDS011;3035;49.928;8.410;2024-02-15T13:46:15;10.53;;;2.50;;
6013;SDS011;3035;49.928;8.410;2024-02-15T13:48:43;8.37;;;2.30;;
6013;SDS011;3035;49.928;8.410;2024-02-15T13:51:10;6.73;;;1.83;;
6013;SDS011;3035;49.928;8.410;2024-02-15T13:53:38;2.50;;;1.57;;
6013;SDS011;3035;49.928;8.410;2024-02-15T13:56:06;3.30;;;1.97;;
6013;SDS011;3035;49.928;8.410;2024-02-15T13:58:33;4.60;;;1.90;;
6013;SDS011;3035;49.928;8.410;2024-02-15T14:01:00;5.90;;;2.17;;
6013;SDS011;3035;49.928;8.410;2024-02-15T14:03:27;4.60;;;1.80;;
6013;SDS011;3035;49.928;8.410;2024-02-15T14:05:55;3.57;;;1.57;;
6013;SDS011;3035;49.928;8.410;2024-02-15T14:08:22;11.90;;;2.20;;
6013;SDS011;3035;49.928;8.410;2024-02-15T14:10:50;7.20;;;2.30;;
6013;SDS011;3035;49.928;8.410;2024-02-15T14:13:17;3.10;;;2.10;;
6013;SDS011;3035;49.928;8.410;2024-02-15T14:15:45;7.00;;;2.37;;
6013;SDS011;3035;49.928;8.410;2024-02-15T14:18:13;6.33;;;3.00;;
6013;SDS011;3035;49.928;8.410;2024-02-15T14:20:40;4.53;;;2.17;;
6013;SDS011;3035;49.928;8.410;2024-02-15T14:23:09;12.13;;;2.60;;
6013;SDS011;3035;49.928;8.410;2024-02-15T14:25:36;8.10;;;2.60;;
6013;SDS011;3035;49.928;8.410;2024-02-15T14:28:03;6.17;;;2.50;;
6013;SDS011;3035;49.928;8.410;2024-02-15T14:30:31;3.80;;;2.13;;
6013;SDS011;3035;49.928;8.410;2024-02-15T14:33:04;4.80;;;2.17;;
6013;SDS011;3035;49.928;8.410;2024-02-15T14:35:33;6.70;;;2.27;;
6013;SDS011;3035;49.928;8.410;2024-02-15T14:38:02;3.33;;;1.87;;
6013;SDS011;3035;49.928;8.410;2024-02-15T14:40:29;7.57;;;2.40;;
6013;SDS011;3035;49.928;8.410;2024-02-15T14:42:57;7.80;;;2.17;;
6013;SDS011;3035;49.928;8.410;2024-02-15T14:45:24;8.10;;;2.57;;
6013;SDS011;3035;49.928;8.410;2024-02-15T14:47:52;8.00;;;2.20;;
6013;SDS011;3035;49.928;8.410;2024-02-15T14:50:19;8.40;;;2.17;;
6013;SDS011;3035;49.928;8.410;2024-02-15T14:52:47;9.23;;;2.03;;
6013;SDS011;3035;49.928;8.410;2024-02-15T14:55:15;4.73;;;2.17;;
6013;SDS011;3035;49.928;8.410;2024-02-15T14:57:42;7.27;;;2.07;;
6013;SDS011;3035;49.928;8.410;2024-02-15T15:00:10;5.87;;;2.00;;
6013;SDS011;3035;49.928;8.410;2024-02-15T15:02:38;7.83;;;3.47;;
6013;SDS011;3035;49.928;8.410;2024-02-15T15:05:05;10.57;;;6.50;;
6013;SDS011;3035;49.928;8.410;2024-02-15T15:07:39;7.67;;;4.50;;
6013;SDS011;3035;49.928;8.410;2024-02-15T15:10:12;6.13;;;4.07;;
6013;SDS011;3035;49.928;8.410;2024-02-15T15:12:45;24.03;;;5.73;;
6013;SDS011;3035;49.928;8.410;2024-02-15T15:15:12;6.43;;;4.23;;
6013;SDS011;3035;49.928;8.410;2024-02-15T15:17:40;10.40;;;4.40;;
6013;SDS011;3035;49.928;8.410;2024-02-15T15:20:07;9.20;;;5.00;;
6013;SDS011;3035;49.928;8.410;2024-02-15T15:22:35;10.20;;;5.80;;
6013;SDS011;3035;49.928;8.410;2024-02-15T15:25:02;10.67;;;4.20;;
6013;SDS011;3035;49.928;8.410;2024-02-15T15:27:31;14.83;;;8.30;;
6013;SDS011;3035;49.928;8.410;2024-02-15T15:29:58;12.63;;;5.50;;
6013;SDS011;3035;49.928;8.410;2024-02-15T15:32:26;9.30;;;4.33;;
6013;SDS011;3035;49.928;8.410;2024-02-15T15:34:53;13.03;;;4.50;;